Time,TemperatureF,DewpointF,PressureIn,WindDirection,WindDirectionDegrees,WindSpeedMPH,WindSpeedGustMPH,Humidity,HourlyPrecipIn,Conditions,Clouds,dailyrainin,SoftwareType,DateUTC
2013-04-20 00:09:00,43.3,33.1,29.79,WSW,247,7.8,-999.0,67,-99.99,,,0.00,Acu-Link.com,2013-04-20 04:09:00,
2013-04-20 00:24:00,43.3,32.7,29.79,SW,225,8.9,-999.0,66,-99.99,,,0.00,Acu-Link.com,2013-04-20 04:24:00,
2013-04-20 00:39:00,43.2,32.2,29.79,West,270,12.5,-999.0,65,-99.99,,,0.00,Acu-Link.com,2013-04-20 04:39:00,
2013-04-20 00:54:00,42.6,31.7,29.80,SW,225,12.5,-999.0,65,-99.99,,,0.00,Acu-Link.com,2013-04-20 04:54:00,
2013-04-20 01:09:00,41.9,29.8,29.80,WSW,247,20.7,-999.0,62,-99.99,,,0.00,Acu-Link.com,2013-04-20 05:09:00,
2013-04-20 01:24:00,41.2,30.0,29.81,West,270,27.4,-999.0,64,-99.99,,,0.00,Acu-Link.com,2013-04-20 05:24:00,
2013-04-20 01:39:00,40.1,31.8,29.82,SW,225,13.0,-999.0,72,-99.99,,,0.00,Acu-Link.com,2013-04-20 05:39:00,
2013-04-20 01:57:00,39.9,32.0,29.82,WSW,247,6.8,-999.0,73,-99.99,,,0.00,Acu-Link.com,2013-04-20 05:57:00,
2013-04-20 02:17:00,39.4,33.1,29.82,West,270,11.4,-999.0,78,-99.99,,,0.00,Acu-Link.com,2013-04-20 06:17:00,
2013-04-20 02:37:00,39.0,33.7,29.83,SW,225,9.4,-999.0,81,-99.99,,,0.00,Acu-Link.com,2013-04-20 06:37:00,
2013-04-20 02:53:00,36.7,33.2,29.85,SW,225,11.9,-999.0,87,-99.99,,,0.00,Acu-Link.com,2013-04-20 06:53:00,
2013-04-20 03:20:00,36.9,30.7,29.84,SW,225,13.5,-999.0,78,-99.99,,,0.00,Acu-Link.com,2013-04-20 07:20:00,
2013-04-20 03:35:00,36.9,30.7,29.85,West,270,14.0,-999.0,78,-99.99,,,0.00,Acu-Link.com,2013-04-20 07:35:00,
2013-04-20 03:53:00,36.1,29.9,29.86,SW,225,6.8,-999.0,78,-99.99,,,0.00,Acu-Link.com,2013-04-20 07:53:00,
2013-04-20 04:10:00,36.1,29.9,29.86,SW,225,9.4,-999.0,78,-99.99,,,0.00,Acu-Link.com,2013-04-20 08:10:00,
2013-04-20 04:27:00,36.1,29.9,29.87,South,180,5.3,-999.0,78,-99.99,,,0.00,Acu-Link.com,2013-04-20 08:27:00,
2013-04-20 04:43:00,36.7,29.9,29.87,WSW,247,11.4,-999.0,76,-99.99,,,0.00,Acu-Link.com,2013-04-20 08:43:00,
2013-04-20 04:58:00,36.5,30.0,29.87,SSW,202,5.8,-999.0,77,-99.99,,,0.00,Acu-Link.com,2013-04-20 08:58:00,
2013-04-20 05:13:00,36.1,30.2,29.87,West,270,6.8,-999.0,79,-99.99,,,0.00,Acu-Link.com,2013-04-20 09:13:00,
2013-04-20 05:28:00,36.1,29.6,29.87,WSW,247,5.3,-999.0,77,-99.99,,,0.00,Acu-Link.com,2013-04-20 09:28:00,
2013-04-20 05:43:00,35.8,29.0,29.87,WSW,247,8.9,-999.0,76,-99.99,,,0.00,Acu-Link.com,2013-04-20 09:43:00,
2013-04-20 05:58:00,35.6,28.8,29.88,WSW,247,5.3,-999.0,76,-99.99,,,0.00,Acu-Link.com,2013-04-20 09:58:00,
2013-04-20 06:14:00,35.8,28.7,29.88,West,270,4.7,-999.0,75,-99.99,,,0.00,Acu-Link.com,2013-04-20 10:14:00,
2013-04-20 06:29:00,36.0,28.5,29.89,SSW,202,4.2,-999.0,74,-99.99,,,0.00,Acu-Link.com,2013-04-20 10:29:00,
2013-04-20 06:44:00,36.0,28.9,29.89,SW,225,8.3,-999.0,75,-99.99,,,0.00,Acu-Link.com,2013-04-20 10:44:00,
2013-04-20 06:59:00,36.5,29.0,29.90,WSW,247,9.4,-999.0,74,-99.99,,,0.00,Acu-Link.com,2013-04-20 10:59:00,
2013-04-20 07:19:00,37.0,29.5,29.91,SW,225,6.8,-999.0,74,-99.99,,,0.00,Acu-Link.com,2013-04-20 11:19:00,
2013-04-20 07:34:00,37.2,30.3,29.92,North,0,5.8,-999.0,76,-99.99,,,0.00,Acu-Link.com,2013-04-20 11:34:00,
2013-04-20 07:49:00,36.7,31.7,29.93,West,270,7.8,-999.0,82,-99.99,,,0.00,Acu-Link.com,2013-04-20 11:49:00,
2013-04-20 08:04:00,37.6,31.4,29.94,SW,225,12.5,-999.0,78,-99.99,,,0.00,Acu-Link.com,2013-04-20 12:04:00,
2013-04-20 08:19:00,38.1,30.6,29.94,SW,225,13.5,-999.0,74,-99.99,,,0.00,Acu-Link.com,2013-04-20 12:19:00,
2013-04-20 08:34:00,39.2,29.9,29.95,South,180,14.5,-999.0,69,-99.99,,,0.00,Acu-Link.com,2013-04-20 12:34:00,
2013-04-20 08:50:00,39.6,31.0,29.96,West,270,11.9,-999.0,71,-99.99,,,0.00,Acu-Link.com,2013-04-20 12:50:00,
2013-04-20 09:07:00,38.7,29.8,29.96,SW,225,9.9,-999.0,70,-99.99,,,0.00,Acu-Link.com,2013-04-20 13:07:00,
2013-04-20 09:22:00,38.7,29.1,29.97,WSW,247,9.9,-999.0,68,-99.99,,,0.00,Acu-Link.com,2013-04-20 13:22:00,
2013-04-20 09:37:00,38.3,29.4,29.98,SW,225,10.9,-999.0,70,-99.99,,,0.00,Acu-Link.com,2013-04-20 13:37:00,
2013-04-20 11:13:00,39.7,31.4,30.04,West,270,11.9,-999.0,72,-99.99,,,0.00,Acu-Link.com,2013-04-20 15:13:00,
2013-04-20 11:28:00,41.4,31.6,30.04,SSW,202,7.3,-999.0,68,-99.99,,,0.00,Acu-Link.com,2013-04-20 15:28:00,
2013-04-20 11:43:00,44.2,32.8,30.04,West,270,8.3,-999.0,64,-99.99,,,0.00,Acu-Link.com,2013-04-20 15:43:00,
2013-04-20 11:58:00,43.3,29.1,30.04,WSW,247,17.1,-999.0,57,-99.99,,,0.00,Acu-Link.com,2013-04-20 15:58:00,
2013-04-20 12:13:00,42.4,27.4,30.04,West,270,17.6,-999.0,55,-99.99,,,0.00,Acu-Link.com,2013-04-20 16:13:00,
2013-04-20 12:28:00,42.8,28.6,30.05,West,270,12.5,-999.0,57,-99.99,,,0.00,Acu-Link.com,2013-04-20 16:28:00,
2013-04-20 12:43:00,45.3,29.6,30.04,SW,225,8.9,-999.0,54,-99.99,,,0.00,Acu-Link.com,2013-04-20 16:43:00,
2013-04-20 12:58:00,44.8,29.2,30.04,West,270,16.6,-999.0,54,-99.99,,,0.00,Acu-Link.com,2013-04-20 16:58:00,
2013-04-20 13:13:00,46.2,28.1,30.04,West,270,18.1,-999.0,49,-99.99,,,0.00,Acu-Link.com,2013-04-20 17:13:00,
2013-04-20 13:28:00,47.3,29.1,30.05,West,270,10.4,-999.0,49,-99.99,,,0.00,Acu-Link.com,2013-04-20 17:28:00,
2013-04-20 13:43:00,46.9,27.7,30.04,West,270,20.7,-999.0,47,-99.99,,,0.00,Acu-Link.com,2013-04-20 17:43:00,
2013-04-20 13:58:00,46.9,27.7,30.05,West,270,13.0,-999.0,47,-99.99,,,0.00,Acu-Link.com,2013-04-20 17:58:00,
2013-04-20 14:13:00,46.8,26.1,30.06,WSW,247,17.6,-999.0,44,-99.99,,,0.00,Acu-Link.com,2013-04-20 18:13:00,
2013-04-20 14:29:00,46.2,28.1,30.06,West,270,5.8,-999.0,49,-99.99,,,0.00,Acu-Link.com,2013-04-20 18:29:00,
2013-04-20 14:44:00,47.5,28.8,30.07,West,270,16.1,-999.0,48,-99.99,,,0.00,Acu-Link.com,2013-04-20 18:44:00,
2013-04-20 14:59:00,47.3,28.1,30.07,West,270,7.8,-999.0,47,-99.99,,,0.00,Acu-Link.com,2013-04-20 18:59:00,
2013-04-20 15:14:00,47.5,27.2,30.07,WSW,247,13.0,-999.0,45,-99.99,,,0.00,Acu-Link.com,2013-04-20 19:14:00,
2013-04-20 15:29:00,48.6,29.8,30.07,West,270,9.9,-999.0,48,-99.99,,,0.00,Acu-Link.com,2013-04-20 19:29:00,
2013-04-20 15:44:00,47.8,27.5,30.08,WNW,292,7.3,-999.0,45,-99.99,,,0.00,Acu-Link.com,2013-04-20 19:44:00,
2013-04-20 15:59:00,46.4,26.8,30.08,West,270,6.3,-999.0,46,-99.99,,,0.00,Acu-Link.com,2013-04-20 19:59:00,
2013-04-20 16:15:00,49.8,28.8,30.09,ENE,67,10.4,-999.0,44,-99.99,,,0.00,Acu-Link.com,2013-04-20 20:15:00,
2013-04-20 16:33:00,49.5,27.4,30.10,West,270,13.5,-999.0,42,-99.99,,,0.00,Acu-Link.com,2013-04-20 20:33:00,
2013-04-20 16:48:00,47.1,26.3,30.10,West,270,8.9,-999.0,44,-99.99,,,0.00,Acu-Link.com,2013-04-20 20:48:00,
2013-04-20 17:03:00,46.6,25.3,30.11,West,270,9.4,-999.0,43,-99.99,,,0.00,Acu-Link.com,2013-04-20 21:03:00,
2013-04-20 17:18:00,47.7,26.9,30.12,West,270,6.8,-999.0,44,-99.99,,,0.00,Acu-Link.com,2013-04-20 21:18:00,
2013-04-20 17:34:00,46.0,24.8,30.13,West,270,6.3,-999.0,43,-99.99,,,0.00,Acu-Link.com,2013-04-20 21:34:00,
2013-04-20 17:50:00,47.7,26.3,30.14,WNW,292,15.0,-999.0,43,-99.99,,,0.00,Acu-Link.com,2013-04-20 21:50:00,
2013-04-20 18:05:00,49.3,26.6,30.15,West,270,8.9,-999.0,41,-99.99,,,0.00,Acu-Link.com,2013-04-20 22:05:00,
2013-04-20 18:20:00,45.9,25.8,30.16,SSE,157,11.4,-999.0,45,-99.99,,,0.00,Acu-Link.com,2013-04-20 22:20:00,
2013-04-20 18:36:00,45.9,25.8,30.17,WNW,292,12.5,-999.0,45,-99.99,,,0.00,Acu-Link.com,2013-04-20 22:36:00,
2013-04-20 18:51:00,45.1,25.6,30.18,West,270,10.9,-999.0,46,-99.99,,,0.00,Acu-Link.com,2013-04-20 22:51:00,
2013-04-20 19:06:00,43.9,24.5,30.18,West,270,11.9,-999.0,46,-99.99,,,0.00,Acu-Link.com,2013-04-20 23:06:00,
2013-04-20 19:21:00,44.1,24.7,30.18,WSW,247,11.9,-999.0,46,-99.99,,,0.00,Acu-Link.com,2013-04-20 23:21:00,
2013-04-20 19:37:00,43.5,24.1,30.19,WNW,292,4.7,-999.0,46,-99.99,,,0.00,Acu-Link.com,2013-04-20 23:37:00,
2013-04-20 19:52:00,42.6,23.8,30.20,WNW,292,4.2,-999.0,47,-99.99,,,0.00,Acu-Link.com,2013-04-20 23:52:00,
2013-04-20 20:07:00,41.5,23.3,30.21,WNW,292,8.9,-999.0,48,-99.99,,,0.00,Acu-Link.com,2013-04-21 00:07:00,
2013-04-20 20:22:00,41.0,23.3,30.22,West,270,2.7,-999.0,49,-99.99,,,0.00,Acu-Link.com,2013-04-21 00:22:00,
2013-04-20 20:37:00,40.3,23.2,30.23,West,270,3.2,-999.0,50,-99.99,,,0.00,Acu-Link.com,2013-04-21 00:37:00,
2013-04-20 20:53:00,39.7,23.5,30.24,West,270,2.2,-999.0,52,-99.99,,,0.00,Acu-Link.com,2013-04-21 00:53:00,
2013-04-20 21:08:00,39.0,23.8,30.25,WSW,247,2.2,-999.0,54,-99.99,,,0.00,Acu-Link.com,2013-04-21 01:08:00,
2013-04-20 21:23:00,38.8,23.6,30.26,West,270,2.2,-999.0,54,-99.99,,,0.00,Acu-Link.com,2013-04-21 01:23:00,
2013-04-20 21:39:00,38.5,23.8,30.26,West,270,2.2,-999.0,55,-99.99,,,0.00,Acu-Link.com,2013-04-21 01:39:00,
2013-04-20 21:54:00,37.9,23.6,30.27,West,270,1.7,-999.0,56,-99.99,,,0.00,Acu-Link.com,2013-04-21 01:54:00,
2013-04-20 22:09:00,37.8,24.0,30.28,NW,315,0.0,-999.0,57,-99.99,,,0.00,Acu-Link.com,2013-04-21 02:09:00,
2013-04-20 22:24:00,37.2,23.4,30.28,West,270,0.0,-999.0,57,-99.99,,,0.00,Acu-Link.com,2013-04-21 02:24:00,
2013-04-20 22:40:00,36.7,22.9,30.30,WNW,292,1.7,-999.0,57,-99.99,,,0.00,Acu-Link.com,2013-04-21 02:40:00,
2013-04-20 22:55:00,36.5,23.1,30.30,West,270,0.0,-999.0,58,-99.99,,,0.00,Acu-Link.com,2013-04-21 02:55:00,
2013-04-20 23:10:00,35.6,23.1,30.30,West,270,0.0,-999.0,60,-99.99,,,0.00,Acu-Link.com,2013-04-21 03:10:00,
2013-04-20 23:25:00,36.7,23.7,30.31,West,270,0.0,-999.0,59,-99.99,,,0.00,Acu-Link.com,2013-04-21 03:25:00,
2013-04-20 23:40:00,37.2,23.8,30.31,NNE,22,2.7,-999.0,58,-99.99,,,0.00,Acu-Link.com,2013-04-21 03:40:00,
2013-04-20 23:56:00,37.0,23.6,30.32,ESE,112,3.7,-999.0,58,-99.99,,,0.00,Acu-Link.com,2013-04-21 03:56:00,